createdAt,value
2023-03-20T00:02:22.931Z,26.73
2023-03-20T00:04:50.118Z,38.57
2023-03-20T00:07:17.072Z,32.00
2023-03-20T00:09:43.959Z,26.80
2023-03-20T00:12:16.268Z,42.77
2023-03-20T00:14:43.345Z,34.87
2023-03-20T00:17:20.512Z,37.47
2023-03-20T00:19:47.795Z,37.07
2023-03-20T00:22:14.818Z,42.70
2023-03-20T00:24:41.766Z,40.03
2023-03-20T00:27:14.031Z,43.07
2023-03-20T00:29:41.393Z,36.50
2023-03-20T00:32:15.811Z,39.37
2023-03-20T00:34:43.182Z,33.67
2023-03-20T00:37:11.826Z,34.43
2023-03-20T00:39:39.341Z,31.80
2023-03-20T00:42:09.605Z,39.73
2023-03-20T00:44:54.105Z,33.80
2023-03-20T00:47:24.270Z,36.83
2023-03-20T00:49:54.516Z,31.17
2023-03-20T00:52:23.045Z,36.83
2023-03-20T00:54:50.320Z,31.97
2023-03-20T00:57:30.978Z,33.27
2023-03-20T01:00:00.241Z,32.87
2023-03-20T01:02:31.131Z,36.17
2023-03-20T01:04:58.775Z,31.70
2023-03-20T01:07:26.616Z,34.13
2023-03-20T01:09:53.710Z,39.37
2023-03-20T01:12:20.975Z,39.17
2023-03-20T01:14:54.705Z,39.13
2023-03-20T01:17:24.410Z,29.23
2023-03-20T01:19:52.139Z,30.43
2023-03-20T01:22:19.599Z,34.97
2023-03-20T01:24:47.513Z,34.77
2023-03-20T01:27:20.476Z,34.33
2023-03-20T01:29:47.549Z,35.03
2023-03-20T01:32:20.019Z,33.67
2023-03-20T01:34:47.952Z,35.73
2023-03-20T01:37:26.288Z,33.40
2023-03-20T01:39:54.091Z,41.37
2023-03-20T01:42:21.902Z,26.73
2023-03-20T01:44:49.004Z,34.50
2023-03-20T01:47:21.273Z,29.53
2023-03-20T01:50:23.545Z,29.07
2023-03-20T01:53:08.645Z,40.60
2023-03-20T01:55:37.446Z,47.97
2023-03-20T01:58:13.457Z,32.50
2023-03-20T02:00:40.719Z,25.63
2023-03-20T02:03:09.434Z,34.53
2023-03-20T02:05:38.928Z,34.87
2023-03-20T02:08:33.024Z,35.33
2023-03-20T02:11:01.856Z,28.47
2023-03-20T02:13:31.454Z,32.93
2023-03-20T02:16:19.987Z,27.50
2023-03-20T02:18:52.068Z,30.57
2023-03-20T02:21:40.033Z,30.63
2023-03-20T02:24:40.194Z,29.50
2023-03-20T02:27:57.482Z,31.00
2023-03-20T02:31:04.710Z,24.40
2023-03-20T02:33:37.366Z,22.63
2023-03-20T02:36:55.904Z,25.63
2023-03-20T02:39:47.856Z,22.57
2023-03-20T02:43:10.084Z,21.10
2023-03-20T02:46:02.160Z,31.70
2023-03-20T02:48:48.233Z,22.50
2023-03-20T02:51:50.133Z,29.33
2023-03-20T02:54:42.061Z,20.17
2023-03-20T02:57:24.105Z,25.83
2023-03-20T03:00:05.778Z,24.43
2023-03-20T03:03:06.600Z,25.60
2023-03-20T03:05:45.580Z,27.93
2023-03-20T03:08:15.120Z,26.97
2023-03-20T03:10:52.816Z,34.63
2023-03-20T03:13:26.001Z,22.73
2023-03-20T03:15:57.975Z,29.93
2023-03-20T03:18:26.833Z,28.37
2023-03-20T03:20:59.952Z,28.43
2023-03-20T03:23:31.512Z,23.43
2023-03-20T03:26:03.588Z,23.10
2023-03-20T03:28:41.454Z,23.27
2023-03-20T03:31:13.724Z,25.30
2023-03-20T03:33:44.784Z,26.83
2023-03-20T03:36:14.373Z,28.03
2023-03-20T03:39:11.434Z,25.07
2023-03-20T03:41:47.007Z,25.67
2023-03-20T03:44:44.723Z,23.73
2023-03-20T03:47:31.405Z,30.07
2023-03-20T03:50:12.877Z,25.60
2023-03-20T03:52:41.640Z,24.50
2023-03-20T03:55:35.114Z,34.50
2023-03-20T03:58:29.645Z,28.03
2023-03-20T04:00:59.726Z,24.43
2023-03-20T04:03:33.111Z,28.00
2023-03-20T04:06:03.614Z,28.80
2023-03-20T04:08:30.574Z,23.60
2023-03-20T04:10:57.497Z,28.33
2023-03-20T04:13:24.429Z,22.93
2023-03-20T04:15:52.405Z,27.73
2023-03-20T04:18:19.986Z,22.47
2023-03-20T04:20:47.853Z,22.87
2023-03-20T04:23:15.738Z,24.40
2023-03-20T04:25:42.801Z,28.27
2023-03-20T04:28:11.618Z,27.57
2023-03-20T04:30:38.808Z,19.90
2023-03-20T04:33:05.825Z,21.87
2023-03-20T04:35:32.748Z,19.80
2023-03-20T04:37:59.800Z,24.60
2023-03-20T04:40:27.145Z,28.10
2023-03-20T04:42:54.069Z,28.23
2023-03-20T04:45:21.239Z,26.63
2023-03-20T04:47:48.217Z,30.77
2023-03-20T04:50:15.464Z,23.97
2023-03-20T04:52:42.380Z,30.53
2023-03-20T04:55:09.642Z,27.57
2023-03-20T04:57:36.673Z,34.20
2023-03-20T05:00:04.828Z,29.83
2023-03-20T05:02:31.766Z,29.10
2023-03-20T05:04:58.681Z,33.63
2023-03-20T05:07:25.959Z,29.17
2023-03-20T05:09:53.069Z,28.80
2023-03-20T05:12:20.756Z,31.67
2023-03-20T05:14:47.771Z,31.43
2023-03-20T05:17:14.880Z,34.70
2023-03-20T05:19:43.170Z,26.63
2023-03-20T05:22:10.379Z,32.60
2023-03-20T05:24:37.291Z,33.43
2023-03-20T05:27:04.209Z,32.73
2023-03-20T05:29:31.489Z,40.20
2023-03-20T05:31:58.394Z,39.67
2023-03-20T05:34:25.675Z,34.40
2023-03-20T05:36:52.646Z,32.97
2023-03-20T05:39:19.830Z,33.93
2023-03-20T05:41:46.774Z,38.17
2023-03-20T05:44:13.893Z,39.93
2023-03-20T05:46:41.500Z,46.67
2023-03-20T05:49:08.733Z,45.07
2023-03-20T05:51:35.783Z,43.63
2023-03-20T05:54:02.767Z,33.50
2023-03-20T05:56:29.880Z,38.23
2023-03-20T05:58:56.836Z,36.93
2023-03-20T06:01:23.768Z,39.07
2023-03-20T06:03:51.043Z,35.83
2023-03-20T06:06:18.181Z,33.30
2023-03-20T06:08:45.407Z,37.90
2023-03-20T06:11:12.795Z,37.10
2023-03-20T06:13:39.750Z,36.63
2023-03-20T06:16:08.162Z,39.90
2023-03-20T06:18:35.150Z,46.50
2023-03-20T06:21:02.784Z,27.93
2023-03-20T06:23:29.745Z,27.33
2023-03-20T06:25:56.804Z,29.73
2023-03-20T06:28:23.764Z,28.63
2023-03-20T06:30:53.877Z,28.10
2023-03-20T06:33:21.038Z,33.37
2023-03-20T06:35:48.324Z,33.97
2023-03-20T06:38:15.921Z,37.73
2023-03-20T06:40:45.186Z,27.00
2023-03-20T06:43:12.614Z,36.07
2023-03-20T06:45:40.832Z,26.57
2023-03-20T06:48:09.469Z,30.53
2023-03-20T06:50:36.574Z,32.50
2023-03-20T06:53:03.963Z,36.90
2023-03-20T06:55:31.290Z,24.83
2023-03-20T06:57:58.310Z,28.43
2023-03-20T07:00:25.666Z,32.00
2023-03-20T07:02:53.357Z,33.63
2023-03-20T07:05:21.742Z,28.27
2023-03-20T07:07:48.815Z,28.93
2023-03-20T07:10:17.275Z,30.47
2023-03-20T07:12:44.739Z,33.43
2023-03-20T07:15:12.421Z,26.50
2023-03-20T07:17:39.399Z,33.27
2023-03-20T07:20:08.536Z,26.33
2023-03-20T07:22:36.110Z,30.50
2023-03-20T07:25:03.569Z,28.93
2023-03-20T07:27:30.995Z,28.17
2023-03-20T07:29:57.966Z,22.93
2023-03-20T07:32:24.975Z,27.33
2023-03-20T07:34:52.002Z,33.43
2023-03-20T07:37:19.195Z,24.43
2023-03-20T07:39:46.171Z,23.97
2023-03-20T07:42:13.879Z,26.63
2023-03-20T07:44:40.956Z,34.10
2023-03-20T07:47:08.139Z,25.40
2023-03-20T07:49:35.476Z,28.13
2023-03-20T07:52:02.657Z,35.50
2023-03-20T07:54:29.693Z,29.80
2023-03-20T07:56:56.615Z,23.50
2023-03-20T07:59:23.564Z,22.47
2023-03-20T08:01:50.538Z,24.37
2023-03-20T08:04:19.799Z,22.03
2023-03-20T08:06:46.924Z,20.47
2023-03-20T08:09:13.913Z,22.50
2023-03-20T08:11:41.092Z,22.47
2023-03-20T08:14:08.508Z,24.53
2023-03-20T08:16:35.806Z,26.73
2023-03-20T08:19:05.245Z,23.07
2023-03-20T08:21:33.638Z,21.33
2023-03-20T08:24:00.605Z,23.87
2023-03-20T08:26:27.778Z,24.63
2023-03-20T08:28:54.776Z,20.50
2023-03-20T08:31:21.775Z,17.97
2023-03-20T08:33:49.333Z,18.50
2023-03-20T08:36:19.661Z,19.47
2023-03-20T08:38:48.955Z,25.40
2023-03-20T08:41:17.149Z,16.80
2023-03-20T08:43:44.117Z,19.30
2023-03-20T08:46:11.531Z,24.23
2023-03-20T08:48:38.618Z,15.17
2023-03-20T08:51:06.265Z,15.60
2023-03-20T08:53:33.255Z,16.47
2023-03-20T08:56:00.266Z,13.60
2023-03-20T08:58:27.449Z,17.63
2023-03-20T09:00:54.831Z,16.67
2023-03-20T09:03:22.146Z,21.30
2023-03-20T09:05:52.277Z,20.43
2023-03-20T09:08:19.612Z,22.77
2023-03-20T09:10:51.425Z,18.47
2023-03-20T09:13:27.306Z,19.57
2023-03-20T09:15:56.430Z,19.87
2023-03-20T09:18:23.832Z,18.43
2023-03-20T09:20:51.536Z,17.63
2023-03-20T09:23:19.106Z,17.73
2023-03-20T09:25:47.600Z,24.90
2023-03-20T09:28:14.692Z,16.57
2023-03-20T09:30:43.565Z,18.87
2023-03-20T09:33:11.469Z,15.63
2023-03-20T09:35:38.966Z,16.13
2023-03-20T09:38:06.793Z,16.30
2023-03-20T09:40:46.165Z,19.90
2023-03-20T09:43:56.507Z,14.77
2023-03-20T09:47:19.411Z,14.23
2023-03-20T09:50:13.327Z,16.73
2023-03-20T09:52:52.729Z,17.40
2023-03-20T09:55:25.946Z,15.80
2023-03-20T09:57:59.386Z,16.90
2023-03-20T10:00:29.681Z,17.37
2023-03-20T10:03:29.341Z,19.57
2023-03-20T10:06:04.868Z,14.23
2023-03-20T10:08:38.596Z,14.47
2023-03-20T10:11:23.642Z,15.87
2023-03-20T10:14:36.639Z,17.17
2023-03-20T10:17:15.463Z,17.80
2023-03-20T10:20:31.232Z,22.03
2023-03-20T10:23:07.889Z,15.67
2023-03-20T10:25:41.280Z,16.40
2023-03-20T10:28:14.624Z,16.90
2023-03-20T10:31:28.008Z,16.43
2023-03-20T10:34:26.794Z,19.40
2023-03-20T10:37:17.252Z,19.53
2023-03-20T10:40:15.550Z,17.00
2023-03-20T10:42:47.501Z,18.77
2023-03-20T10:45:40.958Z,16.23
2023-03-20T10:48:20.431Z,22.17
2023-03-20T10:50:56.221Z,20.63
2023-03-20T10:53:46.605Z,25.13
2023-03-20T10:56:46.337Z,18.20
2023-03-20T10:59:38.782Z,20.97
2023-03-20T11:02:14.842Z,22.33
2023-03-20T11:04:42.164Z,14.70
2023-03-20T11:07:38.099Z,28.43
2023-03-20T11:10:04.916Z,24.53
2023-03-20T11:12:46.324Z,19.70
2023-03-20T11:15:29.960Z,22.13
2023-03-20T11:17:57.753Z,22.10
2023-03-20T11:20:33.293Z,24.73
2023-03-20T11:23:06.072Z,25.03
2023-03-20T11:25:39.909Z,21.33
2023-03-20T11:28:31.491Z,22.23
2023-03-20T11:31:11.924Z,20.50
2023-03-20T11:34:14.924Z,17.67
2023-03-20T11:37:10.499Z,21.97
2023-03-20T11:39:40.058Z,23.20
2023-03-20T11:42:28.059Z,23.10
2023-03-20T11:45:18.402Z,19.03
2023-03-20T11:47:54.668Z,15.53
2023-03-20T11:50:34.430Z,18.50
2023-03-20T11:53:24.110Z,25.00
2023-03-20T11:56:10.998Z,20.33
2023-03-20T11:58:56.602Z,21.27
2023-03-20T12:01:25.019Z,19.90
2023-03-20T12:04:03.488Z,23.23
2023-03-20T12:06:54.105Z,23.70
2023-03-20T12:09:43.119Z,22.77
2023-03-20T12:12:43.569Z,19.70
2023-03-20T12:15:29.443Z,24.93
2023-03-20T12:18:16.594Z,29.50
2023-03-20T12:21:07.664Z,18.30
2023-03-20T12:23:44.345Z,21.80
2023-03-20T12:26:45.566Z,18.10
2023-03-20T12:29:35.374Z,22.10
2023-03-20T12:32:21.814Z,24.73
2023-03-20T12:34:58.983Z,22.20
2023-03-20T12:37:26.609Z,23.67
2023-03-20T12:40:00.331Z,21.33
2023-03-20T12:43:00.525Z,19.30
2023-03-20T12:45:44.192Z,18.37
2023-03-20T12:48:37.148Z,24.27
2023-03-20T12:51:40.643Z,20.57
2023-03-20T12:54:23.284Z,20.77
2023-03-20T12:57:13.765Z,21.27
2023-03-20T12:59:50.014Z,30.07
2023-03-20T13:02:33.676Z,19.13
2023-03-20T13:05:10.503Z,21.10
2023-03-20T13:08:23.546Z,24.70
2023-03-20T13:11:08.514Z,26.83
2023-03-20T13:13:55.841Z,31.93
2023-03-20T13:16:40.597Z,20.77
2023-03-20T13:19:20.781Z,29.40
2023-03-20T13:22:04.568Z,21.87
2023-03-20T13:24:50.359Z,23.57
2023-03-20T13:27:41.297Z,27.37
2023-03-20T13:30:48.833Z,23.87
2023-03-20T13:33:40.579Z,26.17
2023-03-20T13:36:41.855Z,26.90
2023-03-20T13:39:40.938Z,20.37
2023-03-20T13:42:17.534Z,24.67
2023-03-20T13:44:46.701Z,27.93
2023-03-20T13:47:20.052Z,21.20
2023-03-20T13:50:26.293Z,29.27
2023-03-20T13:53:12.526Z,34.33
2023-03-20T13:56:04.172Z,20.17
2023-03-20T13:58:56.384Z,21.87
2023-03-20T14:01:59.408Z,27.20
2023-03-20T14:04:27.819Z,24.20
2023-03-20T14:06:57.348Z,21.30
2023-03-20T14:09:37.155Z,18.73
2023-03-20T14:12:07.382Z,16.43
2023-03-20T14:14:59.001Z,26.20
2023-03-20T14:17:31.402Z,25.77
2023-03-20T14:20:11.672Z,20.03
2023-03-20T14:22:41.039Z,27.07
2023-03-20T14:25:21.860Z,25.97
2023-03-20T14:28:06.560Z,23.83
2023-03-20T14:30:36.827Z,18.40
2023-03-20T14:33:16.273Z,21.47
2023-03-20T14:35:49.983Z,22.97
2023-03-20T14:38:19.779Z,18.80
2023-03-20T14:40:53.357Z,25.20
2023-03-20T14:43:38.233Z,17.40
2023-03-20T14:46:33.933Z,17.10
2023-03-20T14:49:23.304Z,22.07
2023-03-20T14:51:57.247Z,20.47
2023-03-20T14:54:30.394Z,15.20
2023-03-20T14:57:22.695Z,25.53
2023-03-20T14:59:50.260Z,22.77
2023-03-20T15:02:31.548Z,17.80
2023-03-20T15:04:58.625Z,20.73
2023-03-20T15:07:37.308Z,16.43
2023-03-20T15:10:06.154Z,16.07
2023-03-20T15:12:38.518Z,14.90
2023-03-20T15:15:21.809Z,16.23
2023-03-20T15:17:48.833Z,20.47
2023-03-20T15:20:25.523Z,18.30
2023-03-20T15:23:02.165Z,17.37
2023-03-20T15:25:45.958Z,18.47
2023-03-20T15:28:21.474Z,17.37
2023-03-20T15:30:53.442Z,22.23
2023-03-20T15:33:27.096Z,17.17
2023-03-20T15:35:54.202Z,20.57
2023-03-20T15:38:21.724Z,17.80
2023-03-20T15:40:51.434Z,23.57
2023-03-20T15:43:27.016Z,15.80
2023-03-20T15:46:16.338Z,20.07
2023-03-20T15:48:49.633Z,17.23
2023-03-20T15:51:18.381Z,14.97
2023-03-20T15:53:48.256Z,23.13
2023-03-20T15:56:19.535Z,20.37
2023-03-20T15:58:52.461Z,20.57
2023-03-20T16:01:23.760Z,18.70
2023-03-20T16:03:52.971Z,20.00
2023-03-20T16:06:22.796Z,21.33
2023-03-20T16:09:07.490Z,14.57
2023-03-20T16:11:41.007Z,20.77
2023-03-20T16:14:21.481Z,18.83
2023-03-20T16:16:51.956Z,14.83
2023-03-20T16:19:19.922Z,16.73
2023-03-20T16:21:55.806Z,16.97
2023-03-20T16:24:29.580Z,19.63
2023-03-20T16:26:58.017Z,19.50
2023-03-20T16:29:27.446Z,23.67
2023-03-20T16:32:07.761Z,15.70
2023-03-20T16:34:38.207Z,20.57
2023-03-20T16:37:30.568Z,18.37
2023-03-20T16:40:37.154Z,20.13
2023-03-20T16:43:18.623Z,19.47
2023-03-20T16:45:51.141Z,15.53
2023-03-20T16:48:22.323Z,18.37
2023-03-20T16:51:04.299Z,19.87
2023-03-20T16:53:46.713Z,18.03
2023-03-20T16:56:53.095Z,13.00
2023-03-20T16:59:20.933Z,13.43
2023-03-20T17:01:49.450Z,19.50
2023-03-20T17:04:38.115Z,19.03
2023-03-20T17:07:18.496Z,18.10
2023-03-20T17:10:00.703Z,23.63
2023-03-20T17:12:32.425Z,20.83
2023-03-20T17:15:02.240Z,18.67
2023-03-20T17:17:29.462Z,17.00
2023-03-20T17:19:58.006Z,20.73
2023-03-20T17:22:30.342Z,17.50
2023-03-20T17:24:57.707Z,14.17
2023-03-20T17:27:30.794Z,14.17
2023-03-20T17:29:58.102Z,20.53
2023-03-20T17:32:25.450Z,20.93
2023-03-20T17:34:52.596Z,18.50
2023-03-20T17:37:29.894Z,19.93
2023-03-20T17:39:57.749Z,16.80
2023-03-20T17:42:31.156Z,16.10
2023-03-20T17:45:00.507Z,17.70
2023-03-20T17:47:30.169Z,14.87
2023-03-20T17:49:57.849Z,14.27
2023-03-20T17:52:28.321Z,18.23
2023-03-20T17:54:55.449Z,16.87
2023-03-20T17:57:27.568Z,17.03
2023-03-20T17:59:54.548Z,21.70
2023-03-20T18:02:21.564Z,16.57
2023-03-20T18:04:49.120Z,14.70
2023-03-20T18:07:18.203Z,15.03
2023-03-20T18:09:45.930Z,13.80
2023-03-20T18:12:16.835Z,11.57
2023-03-20T18:14:45.470Z,15.90
2023-03-20T18:17:14.915Z,14.03
2023-03-20T18:19:43.020Z,14.63
2023-03-20T18:22:10.630Z,13.17
2023-03-20T18:24:40.010Z,13.37
2023-03-20T18:27:07.666Z,11.40
2023-03-20T18:29:34.689Z,11.10
2023-03-20T18:32:01.656Z,11.50
2023-03-20T18:34:28.605Z,11.57
2023-03-20T18:36:55.619Z,8.27
2023-03-20T18:39:24.708Z,12.17
2023-03-20T18:41:52.354Z,9.50
2023-03-20T18:44:19.580Z,8.33
2023-03-20T18:46:46.736Z,41.07
2023-03-20T18:49:18.260Z,8.83
2023-03-20T18:51:46.337Z,10.83
2023-03-20T18:54:13.611Z,14.53
2023-03-20T18:56:41.106Z,11.20
2023-03-20T18:59:12.456Z,14.67
2023-03-20T19:01:39.684Z,9.20
2023-03-20T19:04:07.503Z,13.03
2023-03-20T19:06:34.522Z,13.23
2023-03-20T19:09:05.237Z,12.00
2023-03-20T19:11:32.267Z,13.40
2023-03-20T19:13:59.251Z,16.07
2023-03-20T19:16:31.743Z,14.93
2023-03-20T19:19:01.929Z,16.73
2023-03-20T19:21:31.235Z,12.47
2023-03-20T19:24:04.868Z,17.03
2023-03-20T19:26:34.243Z,12.37
2023-03-20T19:29:02.940Z,16.93
2023-03-20T19:31:30.414Z,18.07
2023-03-20T19:33:57.522Z,18.17
2023-03-20T19:36:32.702Z,16.53
2023-03-20T19:39:02.629Z,19.37
2023-03-20T19:41:32.286Z,15.57
2023-03-20T19:44:01.355Z,23.30
2023-03-20T19:46:39.776Z,16.67
2023-03-20T19:49:30.213Z,15.93
2023-03-20T19:51:57.928Z,19.53
2023-03-20T19:54:24.862Z,21.43
2023-03-20T19:56:51.872Z,19.00
2023-03-20T19:59:18.793Z,18.87
2023-03-20T20:01:46.332Z,15.80
2023-03-20T20:04:13.866Z,18.30
2023-03-20T20:06:41.787Z,18.33
2023-03-20T20:09:09.173Z,19.40
2023-03-20T20:11:36.153Z,15.70
2023-03-20T20:14:08.069Z,16.93
2023-03-20T20:16:37.642Z,15.77
2023-03-20T20:19:06.110Z,13.73
2023-03-20T20:24:20.325Z,22.60
2023-03-20T20:26:56.795Z,19.50
2023-03-20T20:29:30.398Z,26.80
2023-03-20T20:31:59.603Z,16.20
2023-03-20T20:38:09.064Z,14.60
2023-03-20T20:40:01.235Z,16.87
2023-03-20T20:42:28.206Z,19.63
2023-03-20T20:44:55.215Z,21.93
2023-03-20T20:47:22.414Z,24.63
2023-03-20T20:49:50.160Z,22.67
2023-03-20T20:52:17.707Z,21.47
2023-03-20T20:54:44.642Z,21.30
2023-03-20T20:57:12.346Z,18.27
2023-03-20T20:59:41.089Z,19.97
2023-03-20T21:02:13.130Z,15.77
2023-03-20T21:04:42.078Z,16.33
2023-03-20T21:07:13.529Z,17.37
2023-03-20T21:09:41.364Z,19.13
2023-03-20T21:12:10.662Z,16.73
2023-03-20T21:14:38.597Z,22.37
2023-03-20T21:17:06.729Z,17.80
2023-03-20T21:19:38.221Z,18.53
2023-03-20T21:22:07.888Z,18.90
2023-03-20T21:24:36.394Z,15.87
2023-03-20T21:27:11.149Z,15.77
2023-03-20T21:29:39.918Z,19.97
2023-03-20T21:32:09.258Z,15.93
2023-03-20T21:34:38.163Z,16.57
2023-03-20T21:38:06.953Z,16.77
2023-03-20T21:39:53.592Z,19.40
2023-03-20T21:42:21.410Z,16.53
2023-03-20T21:48:27.060Z,15.80
2023-03-20T21:54:13.612Z,18.00
2023-03-20T21:56:41.906Z,18.10
2023-03-20T21:59:24.111Z,11.80
2023-03-20T22:10:45.932Z,19.83
2023-03-20T22:27:32.520Z,17.73
2023-03-20T22:30:05.135Z,17.37
2023-03-20T22:33:11.878Z,20.87
2023-03-20T22:46:43.987Z,18.50
2023-03-20T22:49:00.900Z,20.60
2023-03-20T22:51:34.071Z,18.70
2023-03-20T22:54:03.582Z,18.03
2023-03-20T22:56:30.685Z,18.63
2023-03-20T22:58:57.773Z,18.77
2023-03-20T23:01:24.814Z,18.47
2023-03-20T23:03:51.825Z,19.10
2023-03-20T23:06:27.452Z,24.00
2023-03-20T23:08:58.361Z,19.40
2023-03-20T23:11:27.901Z,20.00
2023-03-20T23:13:54.998Z,16.60
2023-03-20T23:16:22.268Z,18.53
2023-03-20T23:18:49.405Z,27.57
2023-03-20T23:21:16.437Z,25.43
2023-03-20T23:23:43.447Z,17.57
2023-03-20T23:26:21.920Z,24.10
2023-03-20T23:28:53.387Z,15.13
2023-03-20T23:31:24.265Z,22.50
2023-03-20T23:33:57.376Z,19.03
2023-03-20T23:36:36.015Z,19.87
2023-03-20T23:39:07.136Z,25.53
2023-03-20T23:42:07.906Z,24.23
2023-03-20T23:44:21.553Z,20.67
2023-03-20T23:46:48.683Z,20.77
2023-03-20T23:49:16.774Z,21.03
2023-03-20T23:51:44.358Z,21.23
2023-03-20T23:54:12.225Z,21.90
2023-03-20T23:56:39.560Z,18.00
2023-03-20T23:59:18.617Z,20.30
